06NY weather

Murphy Field
Auburn, New York, United States

Public forecast

Using degrees Fahrenheit for public forecast. Weather courtesy of forecast.io.

Closest aviation weather report (METAR) to Murphy Field

Closest report is Cortland County Chase Field, 18.1 nm (33.6 km) SE. Retrieved 2020/04/04 17:15 UTC (0 seconds ago):

KN03 041715Z AUTO 30004KT 5SM BR OVC017 08/08 A3003 RMK AO2

Closest aviation forecast (TAF) to Murphy Field

Closest forecast is Ithaca Tompkins Regional Airport, 21.1 nm (39.1 km) S. Retrieved 2020/04/04 12:30 UTC (5 hours ago):

TAF KITH 041129Z 0412/0512 33006KT 1/4SM FG OVC002 FM041500 VRB03KT 2SM BR OVC004 FM041800 VRB03KT P6SM BKN025